Time;durP1;ratioP1;P1;durP2;ratioP2;P2;SDS_P1;SDS_P2;PMS_P1;PMS_P2;Temp;Humidity;BMP_temperature;BMP_pressure;BME280_temperature;BME280_humidity;BME280_pressure;Samples;Min_cycle;Max_cycle;Signal;HPM_P1;HPM_P2
2022/06/09 00:01:33;;;;;;;33.65;11.32;;;13.70;99.90;;;;;;5020054;28;20106;-45
2022/06/09 00:04:09;;;;;;;37.10;11.82;;;13.70;99.90;;;;;;5026249;28;20050;-46
2022/06/09 00:06:54;;;;;;;37.58;11.07;;;13.60;99.90;;;;;;5022494;28;20056;-43
2022/06/09 00:09:25;;;;;;;30.42;10.02;;;13.60;99.90;;;;;;5016220;28;20091;-45
2022/06/09 00:11:51;;;;;;;44.22;10.73;;;13.60;99.90;;;;;;5022407;28;20041;-45
2022/06/09 00:14:18;;;;;;;31.40;10.13;;;13.50;99.90;;;;;;5022105;28;20359;-45
2022/06/09 00:16:44;;;;;;;37.25;11.00;;;13.50;99.90;;;;;;5020978;28;20088;-44
2022/06/09 00:19:11;;;;;;;27.35;9.77;;;13.50;99.90;;;;;;5020039;28;20107;-44
2022/06/09 00:21:37;;;;;;;27.95;10.35;;;13.40;99.90;;;;;;5020584;28;20060;-43
2022/06/09 00:24:04;;;;;;;33.83;9.70;;;13.50;99.90;;;;;;5021488;28;20513;-43
2022/06/09 00:26:31;;;;;;;26.60;9.48;;;13.40;99.90;;;;;;5013674;28;20524;-44
2022/06/09 00:28:57;;;;;;;28.00;8.90;;;13.30;99.90;;;;;;5018603;28;20357;-44
2022/06/09 00:31:23;;;;;;;31.33;9.57;;;13.40;99.90;;;;;;5021438;28;20484;-43
2022/06/09 00:33:48;;;;;;;29.52;10.60;;;13.30;99.90;;;;;;5020404;28;20468;-43
2022/06/09 00:36:14;;;;;;;37.63;10.75;;;13.30;99.90;;;;;;5021212;28;20119;-44
2022/06/09 00:38:40;;;;;;;30.63;9.40;;;13.20;99.90;;;;;;5021443;28;20052;-43
2022/06/09 00:41:06;;;;;;;29.98;11.05;;;13.20;99.90;;;;;;5021426;28;20041;-45
2022/06/09 00:43:32;;;;;;;31.67;10.63;;;13.10;99.90;;;;;;5022007;28;20049;-43
2022/06/09 00:46:25;;;;;;;33.60;9.57;;;13.10;99.90;;;;;;5016043;28;20049;-43
2022/06/09 00:49:07;;;;;;;30.58;11.35;;;13.20;99.90;;;;;;4924154;29;20063;-44
2022/06/09 00:51:45;;;;;;;31.58;10.48;;;13.10;99.90;;;;;;4939470;29;20051;-43
2022/06/09 00:54:33;;;;;;;29.13;10.18;;;13.10;99.90;;;;;;4923176;29;20059;-45
2022/06/09 00:57:10;;;;;;;35.85;10.32;;;13.00;99.90;;;;;;4939650;29;20047;-43
2022/06/09 00:59:37;;;;;;;33.85;10.80;;;13.00;99.90;;;;;;4939759;29;20499;-44
2022/06/09 01:02:06;;;;;;;31.58;10.10;;;12.90;99.90;;;;;;4923496;29;20515;-44
2022/06/09 01:04:33;;;;;;;26.70;10.30;;;12.90;99.90;;;;;;4939842;29;20093;-44
2022/06/09 01:07:11;;;;;;;28.85;9.55;;;12.90;99.90;;;;;;4938588;29;20638;-45
2022/06/09 01:09:37;;;;;;;41.83;12.13;;;12.90;99.90;;;;;;4939705;29;20546;-43
2022/06/09 01:12:26;;;;;;;37.28;12.43;;;12.90;99.90;;;;;;4940258;28;20063;-43
2022/06/09 01:15:01;;;;;;;32.75;11.57;;;12.90;99.90;;;;;;4940698;29;20086;-44
2022/06/09 01:17:57;;;;;;;31.95;11.48;;;12.80;99.90;;;;;;4943306;29;20050;-45
2022/06/09 01:20:45;;;;;;;30.17;11.23;;;12.80;99.90;;;;;;4940662;29;20549;-46
2022/06/09 01:23:47;;;;;;;30.40;11.93;;;12.80;99.90;;;;;;4917659;29;20517;-43
2022/06/09 01:26:32;;;;;;;35.15;11.30;;;12.60;99.90;;;;;;4982583;28;20066;-44
2022/06/09 01:29:35;;;;;;;28.27;10.90;;;12.70;99.90;;;;;;5021129;28;20045;-45
2022/06/09 01:32:29;;;;;;;24.75;10.68;;;12.60;99.90;;;;;;5021060;28;20060;-43
2022/06/09 01:35:31;;;;;;;25.75;10.80;;;12.50;99.90;;;;;;5019479;28;20056;-44
2022/06/09 01:37:59;;;;;;;31.10;11.15;;;12.50;99.90;;;;;;4938769;29;20146;-47
2022/06/09 01:40:26;;;;;;;38.83;11.65;;;12.50;99.90;;;;;;4938351;29;20574;-44
2022/06/09 01:42:57;;;;;;;33.50;12.38;;;12.40;99.90;;;;;;4939866;29;20142;-45
2022/06/09 01:45:32;;;;;;;33.35;10.43;;;12.40;99.90;;;;;;4939290;29;20051;-43
2022/06/09 01:48:19;;;;;;;33.35;11.70;;;12.40;99.90;;;;;;4923503;29;20059;-43
2022/06/09 01:50:57;;;;;;;25.77;10.88;;;12.40;99.90;;;;;;4938654;29;20055;-44
2022/06/09 01:53:49;;;;;;;27.85;10.18;;;12.40;99.90;;;;;;4939522;29;20649;-45
2022/06/09 01:56:35;;;;;;;33.10;12.95;;;12.50;99.90;;;;;;4922101;29;20507;-43
2022/06/09 01:59:16;;;;;;;34.00;13.75;;;12.40;99.90;;;;;;4939141;29;20137;-43
2022/06/09 02:02:04;;;;;;;24.25;11.48;;;12.50;99.90;;;;;;4923665;29;20053;-45
2022/06/09 02:04:36;;;;;;;26.63;12.15;;;12.50;99.90;;;;;;4939897;29;20046;-43
2022/06/09 02:07:06;;;;;;;31.70;13.32;;;12.50;99.90;;;;;;4928239;29;20515;-43
2022/06/09 02:09:33;;;;;;;30.70;13.45;;;12.50;99.90;;;;;;4938708;29;20059;-43
2022/06/09 02:12:05;;;;;;;32.53;13.70;;;12.60;99.90;;;;;;4938397;29;20081;-43
2022/06/09 02:14:44;;;;;;;32.63;14.52;;;12.60;99.90;;;;;;4982774;28;20065;-44
2022/06/09 02:17:10;;;;;;;31.35;13.50;;;12.60;99.90;;;;;;5020693;28;20517;-43
2022/06/09 02:19:38;;;;;;;25.90;13.05;;;12.70;99.90;;;;;;5020546;28;20049;-44
2022/06/09 02:22:05;;;;;;;28.17;13.05;;;12.70;99.90;;;;;;5021141;28;20156;-44
2022/06/09 02:24:32;;;;;;;21.92;10.85;;;12.70;99.90;;;;;;5022682;28;20049;-45
2022/06/09 02:27:00;;;;;;;24.08;11.55;;;12.70;99.90;;;;;;5025302;28;20048;-45
2022/06/09 02:29:26;;;;;;;22.73;10.55;;;12.70;99.90;;;;;;5025241;28;20056;-43
2022/06/09 02:31:53;;;;;;;24.23;11.07;;;12.80;99.90;;;;;;5027839;28;20142;-44
2022/06/09 02:34:19;;;;;;;20.88;10.40;;;12.70;99.90;;;;;;5023640;28;20045;-46
2022/06/09 02:36:44;;;;;;;24.20;10.77;;;12.70;99.90;;;;;;5023433;28;20060;-44
2022/06/09 02:39:10;;;;;;;18.08;9.50;;;12.60;99.90;;;;;;5022530;28;20154;-44
2022/06/09 02:41:36;;;;;;;18.48;10.00;;;12.60;99.90;;;;;;5024103;28;20057;-44
2022/06/09 02:44:03;;;;;;;13.82;9.40;;;12.50;99.90;;;;;;5023864;28;20045;-45
2022/06/09 02:46:32;;;;;;;16.90;9.50;;;12.50;99.90;;;;;;5018579;28;20405;-44
2022/06/09 02:49:00;;;;;;;16.33;9.18;;;12.50;99.90;;;;;;5014561;28;20057;-43
2022/06/09 02:51:31;;;;;;;21.27;9.63;;;12.50;99.90;;;;;;5023083;28;20099;-44
2022/06/09 02:54:03;;;;;;;15.27;9.45;;;12.40;99.90;;;;;;5023368;28;20126;-44
2022/06/09 02:56:29;;;;;;;21.95;9.88;;;12.40;99.90;;;;;;5018606;28;20049;-44
2022/06/09 02:58:56;;;;;;;17.45;9.63;;;12.40;99.90;;;;;;5021405;28;20591;-43
2022/06/09 03:01:24;;;;;;;23.73;9.95;;;12.40;99.90;;;;;;5035656;28;20067;-43
2022/06/09 03:03:50;;;;;;;14.68;8.55;;;12.40;99.90;;;;;;5022233;28;20127;-43
2022/06/09 03:06:16;;;;;;;11.98;9.23;;;12.40;99.90;;;;;;5042615;28;20488;-43
2022/06/09 03:08:42;;;;;;;19.02;9.25;;;12.30;99.90;;;;;;5042910;28;20147;-44
2022/06/09 03:11:10;;;;;;;10.52;8.35;;;12.30;99.90;;;;;;5042984;28;20148;-45
2022/06/09 03:13:37;;;;;;;13.80;9.00;;;12.30;99.90;;;;;;5042936;28;20084;-43
2022/06/09 03:16:04;;;;;;;10.30;7.13;;;12.20;99.90;;;;;;5023901;28;20057;-43
2022/06/09 03:18:30;;;;;;;11.90;8.20;;;12.20;99.90;;;;;;5024871;28;20060;-45
2022/06/09 03:20:56;;;;;;;9.32;7.07;;;12.20;99.90;;;;;;5043687;28;20059;-43
2022/06/09 03:23:22;;;;;;;14.20;7.22;;;12.10;99.90;;;;;;5042720;28;20033;-44
2022/06/09 03:25:48;;;;;;;13.18;8.52;;;12.20;99.90;;;;;;5042183;28;20051;-43
2022/06/09 03:28:14;;;;;;;13.25;8.50;;;12.10;99.90;;;;;;5023882;28;20080;-43
2022/06/09 03:30:40;;;;;;;14.43;9.48;;;12.20;99.90;;;;;;5042455;28;20132;-43
2022/06/09 03:33:06;;;;;;;12.38;8.57;;;12.20;99.90;;;;;;5043203;28;20055;-45
2022/06/09 03:35:32;;;;;;;16.27;9.98;;;12.30;99.90;;;;;;5022740;28;20082;-45
2022/06/09 03:37:59;;;;;;;14.10;10.43;;;12.30;99.90;;;;;;5043090;28;20048;-43
2022/06/09 03:40:27;;;;;;;16.13;10.73;;;12.30;99.90;;;;;;5043138;28;20055;-43
2022/06/09 03:42:57;;;;;;;16.52;10.85;;;12.30;99.90;;;;;;5043607;28;20511;-44
2022/06/09 03:45:23;;;;;;;15.40;11.32;;;12.30;99.90;;;;;;5028344;28;20056;-46
2022/06/09 03:47:49;;;;;;;14.10;9.93;;;12.30;99.90;;;;;;5024771;28;20060;-43
2022/06/09 03:50:23;;;;;;;21.38;12.15;;;12.30;99.90;;;;;;5042412;28;20119;-43
2022/06/09 03:52:49;;;;;;;16.95;13.10;;;12.40;99.90;;;;;;5041824;28;20048;-46
2022/06/09 03:55:15;;;;;;;22.80;13.73;;;12.40;99.90;;;;;;5024162;28;20045;-43
2022/06/09 03:57:41;;;;;;;27.55;14.65;;;12.60;99.90;;;;;;5023803;28;20155;-44
2022/06/09 04:00:12;;;;;;;25.02;14.55;;;12.60;99.90;;;;;;5042131;28;20071;-44
2022/06/09 04:02:38;;;;;;;16.50;12.63;;;12.70;99.90;;;;;;5042203;28;20522;-45
2022/06/09 04:05:04;;;;;;;20.15;14.70;;;12.80;99.90;;;;;;5041810;28;20045;-43
2022/06/09 04:07:30;;;;;;;18.98;13.70;;;12.80;99.90;;;;;;5022351;28;20327;-44
2022/06/09 04:09:56;;;;;;;16.98;13.23;;;12.90;99.90;;;;;;5042260;28;20091;-43
2022/06/09 04:12:22;;;;;;;18.25;13.77;;;12.90;99.90;;;;;;5041433;28;20091;-44
2022/06/09 04:14:47;;;;;;;23.15;14.98;;;12.90;99.90;;;;;;5041290;28;20117;-45
2022/06/09 04:17:14;;;;;;;23.58;15.00;;;13.00;99.90;;;;;;5041606;28;20103;-43
2022/06/09 04:19:40;;;;;;;19.98;14.32;;;13.10;99.90;;;;;;5042503;28;20045;-43
2022/06/09 04:22:07;;;;;;;22.20;14.48;;;13.10;99.90;;;;;;5041898;28;20045;-43
2022/06/09 04:24:33;;;;;;;17.85;14.32;;;13.10;99.90;;;;;;5035470;28;20049;-43
2022/06/09 04:26:59;;;;;;;22.13;14.60;;;13.20;99.90;;;;;;5041505;28;20052;-43
2022/06/09 04:29:24;;;;;;;24.40;15.60;;;13.20;99.90;;;;;;5022783;28;20408;-44
2022/06/09 04:31:50;;;;;;;23.67;17.13;;;13.30;99.90;;;;;;5041909;28;20044;-44
2022/06/09 04:34:16;;;;;;;23.45;16.63;;;13.40;99.90;;;;;;5041178;28;20079;-44
2022/06/09 04:36:42;;;;;;;20.85;17.80;;;13.40;99.90;;;;;;5040815;28;20431;-44
2022/06/09 04:39:08;;;;;;;23.20;19.83;;;13.50;99.90;;;;;;5034419;28;20045;-43
2022/06/09 04:41:35;;;;;;;30.60;20.10;;;13.60;99.90;;;;;;5039742;28;20083;-45
2022/06/09 04:44:00;;;;;;;27.13;20.50;;;13.70;99.90;;;;;;5019912;28;20055;-44
2022/06/09 04:46:27;;;;;;;23.50;20.92;;;13.90;99.90;;;;;;5039714;28;20049;-44
2022/06/09 04:48:53;;;;;;;25.40;19.20;;;14.00;99.90;;;;;;5041535;28;20522;-44
2022/06/09 04:51:20;;;;;;;30.75;20.85;;;14.20;99.90;;;;;;5042509;28;20056;-44
2022/06/09 04:53:47;;;;;;;20.50;18.40;;;14.30;99.90;;;;;;5041759;28;20049;-44
2022/06/09 04:56:17;;;;;;;25.83;17.48;;;14.40;99.90;;;;;;5041619;28;20061;-44
2022/06/09 04:58:43;;;;;;;28.88;17.73;;;14.30;99.90;;;;;;5043391;28;20272;-43
2022/06/09 05:01:29;;;;;;;20.00;15.68;;;14.30;99.90;;;;;;5042958;28;20077;-44
2022/06/09 05:03:57;;;;;;;18.55;15.75;;;14.30;99.90;;;;;;5042447;28;20143;-47
2022/06/09 05:06:24;;;;;;;20.88;15.52;;;14.20;99.90;;;;;;5040685;28;20057;-46
2022/06/09 05:08:53;;;;;;;23.35;16.33;;;14.10;99.90;;;;;;5022468;28;20569;-43
2022/06/09 05:11:19;;;;;;;25.60;16.25;;;14.10;99.90;;;;;;5041217;28;20554;-43
2022/06/09 05:13:45;;;;;;;23.13;16.10;;;14.20;99.90;;;;;;5022910;28;20141;-44
2022/06/09 05:16:12;;;;;;;22.40;15.93;;;14.20;99.90;;;;;;5041016;28;20053;-45
2022/06/09 05:18:38;;;;;;;19.60;14.45;;;14.30;99.90;;;;;;5040160;28;20045;-43
2022/06/09 05:21:05;;;;;;;23.42;15.15;;;14.30;99.90;;;;;;5040326;28;20075;-43
2022/06/09 05:23:33;;;;;;;19.35;15.27;;;14.30;99.90;;;;;;5037103;28;20080;-44
2022/06/09 05:26:04;;;;;;;21.67;16.00;;;14.40;99.90;;;;;;5038047;28;20427;-45
2022/06/09 05:28:31;;;;;;;20.38;15.77;;;14.30;99.90;;;;;;5018424;28;20053;-44
2022/06/09 05:30:57;;;;;;;20.13;14.85;;;14.30;99.90;;;;;;5038575;28;20045;-44
2022/06/09 05:33:23;;;;;;;26.85;15.20;;;14.40;99.90;;;;;;5040794;28;20163;-44
2022/06/09 05:35:49;;;;;;;20.73;15.93;;;14.50;99.90;;;;;;5021817;28;20061;-44
2022/06/09 05:46:32;;;;;;;24.33;16.27;;;15.20;99.90;;;;;;5039623;28;20654;-45
2022/06/09 05:48:58;;;;;;;19.13;16.65;;;15.30;99.90;;;;;;5039586;28;20083;-45
2022/06/09 05:51:24;;;;;;;20.33;16.58;;;15.40;99.90;;;;;;5019107;28;20049;-45
2022/06/09 05:53:50;;;;;;;19.27;17.38;;;15.40;99.90;;;;;;5033353;28;20088;-44
2022/06/09 05:56:18;;;;;;;18.58;16.67;;;15.60;99.90;;;;;;5039742;28;20136;-45
2022/06/09 05:58:44;;;;;;;19.38;17.33;;;16.10;99.90;;;;;;5040780;28;20045;-45
2022/06/09 06:01:11;;;;;;;22.00;17.13;;;16.60;99.90;;;;;;5042878;28;20506;-44
2022/06/09 06:03:38;;;;;;;18.90;15.13;;;17.20;99.90;;;;;;5044307;28;20124;-44
2022/06/09 06:08:49;;;;;;;16.20;14.48;;;18.00;99.90;;;;;;5026827;28;20420;-44
2022/06/09 06:11:15;;;;;;;15.45;13.48;;;18.50;99.90;;;;;;5046109;28;20041;-45
2022/06/09 06:13:43;;;;;;;15.20;13.57;;;19.30;99.90;;;;;;5028485;28;20045;-44
2022/06/09 06:16:08;;;;;;;14.10;12.55;;;20.10;99.90;;;;;;5044965;28;20397;-48
2022/06/09 06:18:34;;;;;;;15.50;12.45;;;20.50;99.90;;;;;;5043041;28;20041;-46
2022/06/09 06:21:00;;;;;;;12.80;11.50;;;20.70;99.90;;;;;;5044122;28;20356;-45
2022/06/09 06:23:27;;;;;;;12.50;11.15;;;21.40;99.90;;;;;;5041344;28;20034;-46
2022/06/09 06:25:54;;;;;;;12.88;9.63;;;22.10;99.90;;;;;;5040990;28;20110;-45
2022/06/09 06:28:20;;;;;;;15.35;9.82;;;23.30;99.90;;;;;;5043117;28;20534;-44
2022/06/09 06:30:47;;;;;;;12.40;9.15;;;24.80;99.90;;;;;;5043643;28;20402;-44
2022/06/09 06:33:13;;;;;;;12.77;8.82;;;25.30;99.90;;;;;;5043180;28;20045;-45
2022/06/09 06:35:39;;;;;;;9.23;7.40;;;26.00;99.90;;;;;;5022002;28;20452;-44
2022/06/09 06:38:04;;;;;;;7.88;7.00;;;26.30;99.90;;;;;;5039746;28;20053;-45
2022/06/09 06:40:30;;;;;;;10.00;7.05;;;26.10;99.90;;;;;;5022100;28;20215;-45
2022/06/09 06:42:56;;;;;;;7.82;7.05;;;25.60;99.90;;;;;;5023549;28;20041;-46
2022/06/09 06:45:22;;;;;;;8.48;6.07;;;25.20;99.90;;;;;;5023191;28;20054;-46
2022/06/09 06:47:48;;;;;;;6.60;5.03;;;25.60;99.90;;;;;;5023777;28;20548;-46
2022/06/09 06:50:14;;;;;;;6.85;5.32;;;26.00;99.90;;;;;;5022788;28;20083;-45
2022/06/09 06:52:40;;;;;;;9.32;5.43;;;25.60;99.90;;;;;;5023885;28;20037;-45
2022/06/09 06:55:10;;;;;;;8.35;4.60;;;25.20;99.90;;;;;;5023213;28;20092;-45
2022/06/09 06:57:36;;;;;;;7.93;4.55;;;24.60;99.90;;;;;;5023713;28;20053;-49
2022/06/09 07:00:03;;;;;;;8.27;5.05;;;24.60;99.90;;;;;;5005269;28;20111;-45
2022/06/09 07:02:28;;;;;;;6.47;3.63;;;24.90;99.90;;;;;;5022939;28;20057;-45
2022/06/09 07:04:54;;;;;;;7.53;3.67;;;24.90;99.90;;;;;;5004570;28;20069;-47
2022/06/09 07:07:20;;;;;;;7.75;3.10;;;24.90;99.90;;;;;;5005258;28;20042;-45
2022/06/09 07:09:45;;;;;;;6.38;3.00;;;24.70;99.90;;;;;;5022730;28;20046;-45
2022/06/09 07:12:14;;;;;;;6.50;2.92;;;25.00;99.90;;;;;;5005240;28;20140;-45
2022/06/09 07:14:40;;;;;;;6.35;2.97;;;25.40;99.90;;;;;;5005501;28;20464;-44
2022/06/09 07:17:05;;;;;;;5.80;2.80;;;26.20;99.90;;;;;;5028541;28;20052;-45
2022/06/09 07:19:31;;;;;;;7.85;2.80;;;26.60;99.90;;;;;;5043048;28;20468;-47
2022/06/09 07:21:58;;;;;;;8.23;2.60;;;26.90;99.90;;;;;;5024705;28;20530;-45
2022/06/09 07:24:24;;;;;;;6.95;2.65;;;26.90;99.90;;;;;;5037080;28;20045;-46
2022/06/09 07:26:51;;;;;;;6.63;3.17;;;26.60;99.90;;;;;;5045345;28;20530;-45
2022/06/09 07:29:17;;;;;;;6.25;2.50;;;26.00;99.90;;;;;;5024197;28;20540;-49
2022/06/09 07:31:43;;;;;;;5.20;2.50;;;25.50;99.90;;;;;;5023385;28;20057;-50
2022/06/09 07:34:09;;;;;;;7.68;2.58;;;24.80;99.90;;;;;;5025730;28;20064;-46
2022/06/09 07:36:35;;;;;;;6.32;2.05;;;24.70;99.90;;;;;;5024997;28;20119;-46
2022/06/09 07:39:00;;;;;;;5.20;1.88;;;24.20;99.90;;;;;;5038506;28;20083;-46
2022/06/09 07:41:26;;;;;;;8.27;2.45;;;24.10;99.90;;;;;;5039208;28;20273;-47
2022/06/09 07:43:52;;;;;;;5.45;1.67;;;23.90;99.90;;;;;;5042547;28;20472;-44
2022/06/09 07:46:18;;;;;;;9.18;2.20;;;23.90;99.90;;;;;;5024564;28;20098;-45
2022/06/09 07:48:47;;;;;;;11.82;2.40;;;23.80;99.90;;;;;;5024388;28;20063;-45
2022/06/09 07:51:13;;;;;;;4.88;1.95;;;23.60;99.90;;;;;;5024937;28;20585;-46
2022/06/09 07:53:39;;;;;;;7.20;1.95;;;23.50;99.90;;;;;;5042303;28;20049;-44
2022/06/09 07:56:06;;;;;;;6.78;1.85;;;23.00;99.90;;;;;;5041267;28;20045;-45
2022/06/09 07:58:32;;;;;;;8.65;2.38;;;23.10;99.90;;;;;;5006117;28;20086;-45
2022/06/09 08:00:58;;;;;;;6.00;1.95;;;23.00;99.90;;;;;;5041699;28;20085;-46
2022/06/09 08:03:26;;;;;;;5.07;1.95;;;22.90;99.90;;;;;;5041658;28;20133;-45
2022/06/09 08:05:52;;;;;;;6.63;2.60;;;22.90;99.90;;;;;;5041164;28;20040;-46
2022/06/09 08:08:19;;;;;;;5.88;2.05;;;22.70;99.90;;;;;;5041033;28;20047;-46
2022/06/09 08:10:45;;;;;;;6.30;2.38;;;22.70;99.90;;;;;;5041720;28;20605;-46
2022/06/09 08:13:11;;;;;;;6.28;2.30;;;22.40;99.90;;;;;;5019505;28;20163;-45
2022/06/09 08:15:38;;;;;;;7.43;3.28;;;22.30;99.90;;;;;;5038755;28;20052;-46
2022/06/09 08:18:05;;;;;;;9.82;2.75;;;22.10;99.90;;;;;;5041676;28;20098;-46
2022/06/09 08:20:33;;;;;;;12.05;2.95;;;22.10;99.90;;;;;;5020709;28;20582;-45
2022/06/09 08:23:01;;;;;;;10.07;2.72;;;21.80;99.90;;;;;;5040406;28;20465;-46
2022/06/09 08:25:27;;;;;;;7.70;2.20;;;21.60;99.90;;;;;;5033532;28;20041;-46
2022/06/09 08:27:53;;;;;;;8.07;2.42;;;21.50;99.90;;;;;;5041381;28;20053;-46
2022/06/09 08:30:19;;;;;;;7.40;2.38;;;21.40;99.90;;;;;;5014131;28;20080;-45
2022/06/09 08:32:45;;;;;;;9.00;2.72;;;21.50;99.90;;;;;;5020978;28;20085;-47
2022/06/09 08:35:16;;;;;;;10.95;2.92;;;21.80;99.90;;;;;;5021640;28;20049;-46
2022/06/09 08:37:45;;;;;;;8.02;3.25;;;21.80;99.90;;;;;;5017216;28;20057;-45
2022/06/09 08:40:14;;;;;;;6.88;2.70;;;21.90;99.90;;;;;;5022466;28;20131;-45
2022/06/09 08:43:30;;;;;;;5.95;2.55;;;22.00;99.90;;;;;;5023518;28;20064;-47
2022/06/09 08:45:57;;;;;;;9.35;2.60;;;22.00;99.90;;;;;;4925239;29;20071;-45
2022/06/09 08:48:29;;;;;;;8.60;2.50;;;21.70;99.90;;;;;;4942255;29;20063;-45
2022/06/09 08:51:11;;;;;;;8.63;2.60;;;21.60;99.90;;;;;;4940897;29;20070;-47
2022/06/09 08:53:43;;;;;;;8.15;2.80;;;21.20;99.90;;;;;;4941035;29;20142;-45
2022/06/09 08:56:09;;;;;;;;;;;21.20;99.90;;;;;;4940978;29;20094;-44
2022/06/09 08:58:37;;;;;;;9.02;2.95;;;21.10;99.90;;;;;;4940405;29;20021;-44
2022/06/09 09:01:09;;;;;;;8.85;3.60;;;21.20;99.90;;;;;;4941167;29;20059;-48
2022/06/09 09:03:37;;;;;;;6.13;2.40;;;21.20;99.90;;;;;;4939125;29;20059;-48
2022/06/09 09:06:14;;;;;;;7.10;2.35;;;21.10;99.90;;;;;;4933919;29;20051;-45
2022/06/09 09:08:39;;;;;;;10.77;3.00;;;21.20;99.90;;;;;;4940301;29;20074;-45
2022/06/09 09:11:13;;;;;;;7.15;2.05;;;21.20;99.90;;;;;;4939958;29;20065;-46
2022/06/09 09:13:53;;;;;;;7.57;2.08;;;21.30;99.90;;;;;;4940801;29;20055;-44
2022/06/09 09:16:38;;;;;;;8.02;2.63;;;21.30;99.90;;;;;;4923807;29;20134;-45
2022/06/09 09:19:24;;;;;;;7.72;2.33;;;21.40;99.90;;;;;;4939043;29;20086;-45
2022/06/09 09:22:03;;;;;;;6.47;2.28;;;21.60;99.90;;;;;;4947447;28;20076;-45
2022/06/09 09:24:58;;;;;;;10.68;2.60;;;21.70;99.90;;;;;;5021420;28;20037;-47
2022/06/09 09:27:32;;;;;;;12.68;2.58;;;22.00;99.90;;;;;;5020825;28;20061;-46
2022/06/09 09:30:18;;;;;;;9.95;2.55;;;22.20;99.90;;;;;;5019763;28;20057;-45
2022/06/09 09:32:49;;;;;;;9.80;2.72;;;22.30;99.90;;;;;;5019469;28;20063;-47
2022/06/09 09:35:18;;;;;;;8.23;2.60;;;22.20;99.90;;;;;;5020835;28;20059;-47
2022/06/09 09:37:47;;;;;;;6.78;2.03;;;22.20;99.90;;;;;;5024273;28;20444;-45
2022/06/09 09:40:31;;;;;;;6.70;1.88;;;22.10;99.90;;;;;;5012745;28;20141;-47
2022/06/09 09:43:05;;;;;;;7.60;2.42;;;21.90;99.90;;;;;;5024843;28;20053;-45
2022/06/09 09:45:39;;;;;;;9.93;2.30;;;21.80;99.90;;;;;;5019382;28;20056;-45
2022/06/09 09:48:30;;;;;;;5.90;1.70;;;21.70;99.90;;;;;;5022834;28;20128;-45
2022/06/09 09:50:59;;;;;;;5.55;1.75;;;21.90;99.90;;;;;;4927395;29;20142;-49
2022/06/09 09:53:31;;;;;;;7.47;2.42;;;22.20;99.90;;;;;;4927145;29;20456;-45
2022/06/09 09:55:59;;;;;;;7.15;2.15;;;22.20;99.90;;;;;;4943256;29;20103;-45
2022/06/09 09:58:46;;;;;;;7.00;1.98;;;22.30;99.90;;;;;;4926582;29;20051;-46
2022/06/09 10:01:17;;;;;;;6.63;2.03;;;22.40;99.90;;;;;;4943818;29;20054;-46
2022/06/09 10:09:54;;;;;;;6.00;1.70;;;22.40;99.90;;;;;;4907168;29;20059;-45
2022/06/09 10:12:22;;;;;;;7.43;1.88;;;22.60;99.90;;;;;;4906167;29;20583;-49
2022/06/09 10:14:51;;;;;;;5.93;2.17;;;22.30;99.90;;;;;;4905171;29;20111;-49
2022/06/09 10:17:41;;;;;;;5.90;1.80;;;22.00;99.90;;;;;;4904964;29;20196;-46
2022/06/09 10:20:25;;;;;;;5.82;2.17;;;21.90;99.90;;;;;;4884183;29;20052;-45
2022/06/09 10:23:15;;;;;;;5.72;1.95;;;21.40;99.90;;;;;;4904456;29;20447;-45
2022/06/09 10:26:00;;;;;;;6.80;2.03;;;21.40;99.90;;;;;;4888241;29;20040;-46
2022/06/09 10:28:43;;;;;;;8.50;2.50;;;21.80;99.90;;;;;;4942112;28;20062;-46
2022/06/09 10:31:36;;;;;;;7.50;2.00;;;21.80;99.90;;;;;;4961894;28;20357;-47
2022/06/09 10:34:10;;;;;;;7.55;1.90;;;21.90;99.90;;;;;;4945783;28;20437;-46
2022/06/09 10:36:38;;;;;;;5.45;2.08;;;21.60;99.90;;;;;;4961464;28;20061;-46
2022/06/09 10:39:12;;;;;;;5.97;2.33;;;21.70;99.90;;;;;;4961597;28;20046;-46
2022/06/09 10:41:43;;;;;;;8.18;2.58;;;21.90;99.90;;;;;;4961556;28;20133;-46
2022/06/09 10:44:30;;;;;;;9.23;2.20;;;21.50;99.90;;;;;;5006421;28;20067;-45
2022/06/09 10:56:55;;;;;;;7.78;2.20;;;21.40;99.90;;;;;;4942049;29;20106;-45
2022/06/09 10:59:48;;;;;;;5.93;2.10;;;21.30;99.90;;;;;;4939971;29;20558;-47
2022/06/09 11:02:18;;;;;;;9.23;2.30;;;21.40;99.90;;;;;;4942239;29;20134;-46
2022/06/09 11:04:45;;;;;;;7.30;2.53;;;21.40;99.90;;;;;;4913173;29;20055;-47
2022/06/09 11:07:28;;;;;;;10.45;2.75;;;21.60;99.90;;;;;;4942393;29;20118;-45
2022/06/09 11:10:27;;;;;;;10.43;2.40;;;21.80;99.90;;;;;;4940645;29;20051;-47
2022/06/09 11:13:20;;;;;;;8.38;2.35;;;21.60;99.90;;;;;;4925433;29;20063;-48
2022/06/09 11:15:54;;;;;;;7.88;2.17;;;21.40;99.90;;;;;;4941767;29;20101;-45
2022/06/09 11:18:58;;;;;;;10.48;2.67;;;21.60;99.90;;;;;;4942270;29;20101;-45
2022/06/09 11:22:04;;;;;;;13.10;3.75;;;21.70;99.90;;;;;;4942425;29;20051;-45
2022/06/09 11:24:36;;;;;;;10.77;2.30;;;21.90;99.90;;;;;;4903187;29;20176;-45
2022/06/09 11:27:17;;;;;;;7.10;1.83;;;22.00;99.90;;;;;;4905103;29;20068;-47
2022/06/09 11:30:00;;;;;;;9.35;2.60;;;22.10;99.90;;;;;;4899192;29;20056;-46
2022/06/09 11:32:28;;;;;;;7.82;2.30;;;22.30;99.90;;;;;;4950554;28;20058;-48
2022/06/09 11:35:23;;;;;;;10.80;2.50;;;22.20;99.90;;;;;;4962639;28;20051;-49
2022/06/09 11:38:31;;;;;;;9.40;2.78;;;22.00;99.90;;;;;;4923897;29;20091;-47
2022/06/09 11:41:42;;;;;;;8.27;2.97;;;21.70;99.90;;;;;;4866699;29;20607;-44
2022/06/09 11:44:12;;;;;;;10.10;2.63;;;21.60;99.90;;;;;;4850838;29;20096;-46
2022/06/09 11:46:41;;;;;;;6.82;2.00;;;21.60;99.90;;;;;;4865076;29;20061;-45
2022/06/09 11:49:34;;;;;;;7.00;2.00;;;21.60;99.90;;;;;;4865940;29;20060;-46
2022/06/09 11:52:05;;;;;;;6.35;2.05;;;21.80;99.90;;;;;;4858511;29;20561;-46
2022/06/09 11:55:00;;;;;;;4.40;2.00;;;21.90;99.90;;;;;;4865741;29;20066;-46
2022/06/09 11:57:26;;;;;;;6.55;2.70;;;21.90;99.90;;;;;;4810964;29;20141;-45
2022/06/09 12:00:03;;;;;;;7.40;2.33;;;21.80;99.90;;;;;;4828710;29;20548;-45
2022/06/09 12:03:10;;;;;;;7.53;2.13;;;21.70;99.90;;;;;;4827655;29;20375;-45
2022/06/09 12:06:16;;;;;;;5.30;2.00;;;21.80;99.90;;;;;;4827120;29;20134;-44
2022/06/09 12:08:50;;;;;;;7.47;2.10;;;21.80;99.90;;;;;;4795169;29;20151;-46
2022/06/09 12:11:19;;;;;;;7.28;2.22;;;21.80;99.90;;;;;;4814035;29;20069;-45
2022/06/09 12:13:54;;;;;;;7.30;2.03;;;21.60;99.90;;;;;;4812934;29;20058;-44
2022/06/09 12:16:54;;;;;;;4.85;1.60;;;21.50;99.90;;;;;;4867962;29;20726;-44
2022/06/09 12:19:32;;;;;;;5.15;1.90;;;21.30;99.90;;;;;;4902209;29;20587;-44
2022/06/09 12:22:36;;;;;;;4.45;2.13;;;21.00;99.90;;;;;;4886910;29;20119;-43
2022/06/09 12:25:17;;;;;;;9.02;2.50;;;20.80;99.90;;;;;;4901732;29;20127;-43
2022/06/09 12:27:48;;;;;;;9.77;2.03;;;20.80;99.90;;;;;;4902422;29;20060;-44
2022/06/09 12:30:32;;;;;;;6.85;1.52;;;21.10;99.90;;;;;;4903145;29;20079;-44
2022/06/09 12:33:11;;;;;;;9.30;2.58;;;21.20;99.90;;;;;;4897595;29;20071;-45
2022/06/09 12:36:09;;;;;;;7.55;2.53;;;21.40;99.90;;;;;;4938400;29;20063;-43
2022/06/09 12:38:41;;;;;;;6.93;1.95;;;21.70;99.90;;;;;;4920156;29;20109;-44
2022/06/09 12:41:22;;;;;;;9.52;2.38;;;21.60;99.90;;;;;;4941393;29;20059;-44
2022/06/09 12:44:00;;;;;;;5.95;1.70;;;21.50;99.90;;;;;;5015983;28;20382;-44
2022/06/09 12:46:29;;;;;;;7.22;2.08;;;21.50;99.90;;;;;;5021133;28;20401;-44
2022/06/09 12:48:56;;;;;;;7.13;2.30;;;21.30;99.90;;;;;;5021458;28;20075;-44
2022/06/09 12:51:31;;;;;;;8.88;2.28;;;21.10;99.90;;;;;;5021337;28;20065;-44
2022/06/09 12:54:21;;;;;;;8.93;2.85;;;21.10;99.90;;;;;;5021510;28;20048;-47
2022/06/09 12:57:04;;;;;;;6.68;2.22;;;21.00;99.90;;;;;;5020754;28;20135;-44
2022/06/09 12:59:36;;;;;;;8.48;1.77;;;21.00;99.90;;;;;;5023864;28;20133;-44
2022/06/09 13:02:02;;;;;;;7.18;1.98;;;21.30;99.90;;;;;;5022268;28;20034;-49
2022/06/09 13:04:31;;;;;;;7.90;2.30;;;21.10;99.90;;;;;;5020849;28;20064;-47
2022/06/09 13:06:57;;;;;;;7.95;2.63;;;21.20;99.90;;;;;;5020763;28;20045;-45
2022/06/09 13:09:27;;;;;;;8.73;2.15;;;21.20;99.90;;;;;;5019745;28;20056;-44
2022/06/09 13:14:44;;;;;;;7.88;1.98;;;21.00;99.90;;;;;;5021107;28;20210;-45
2022/06/09 13:17:35;;;;;;;6.78;2.10;;;21.00;99.90;;;;;;5020385;28;20045;-44
2022/06/09 13:20:15;;;;;;;8.88;1.90;;;21.00;99.90;;;;;;5018671;28;20152;-44
2022/06/09 13:22:43;;;;;;;9.75;2.47;;;20.90;99.90;;;;;;5021863;28;20060;-44
2022/06/09 13:25:22;;;;;;;10.25;3.15;;;20.90;99.90;;;;;;5019855;28;20049;-43
2022/06/09 13:27:49;;;;;;;7.28;2.50;;;20.90;99.90;;;;;;5020561;28;20053;-44
2022/06/09 13:30:39;;;;;;;13.32;2.75;;;20.80;99.90;;;;;;5020644;28;20148;-46
2022/06/09 13:33:25;;;;;;;11.05;2.58;;;20.70;99.90;;;;;;4940294;29;20055;-44
2022/06/09 13:36:39;;;;;;;10.45;2.88;;;20.60;99.90;;;;;;4940074;29;20525;-44